Time;durP1;ratioP1;P1;durP2;ratioP2;P2;SDS_P1;SDS_P2;PMS_P1;PMS_P2;Temp;Humidity;BMP_temperature;BMP_pressure;BME280_temperature;BME280_humidity;BME280_pressure;Samples;Min_cycle;Max_cycle;Signal;HPM_P1;HPM_P2
2023/05/25 00:01:36;;;;;;;;;;;20.30;45.40;;;;;;5070643;28;19921;-57
2023/05/25 00:04:03;;;;;;;;;;;20.30;45.40;;;;;;5071361;28;19921;-58
2023/05/25 00:06:30;;;;;;;;;;;20.30;45.40;;;;;;5073790;28;19980;-58
2023/05/25 00:08:57;;;;;;;;;;;20.40;45.50;;;;;;5074142;28;19963;-58
2023/05/25 00:11:23;;;;;;;;;;;20.40;45.50;;;;;;5071801;28;20425;-58
2023/05/25 00:13:50;;;;;;;;;;;20.40;45.50;;;;;;5070876;28;19978;-58
2023/05/25 00:16:19;;;;;;;;;;;20.40;45.50;;;;;;5071469;28;19943;-59
2023/05/25 00:18:47;;;;;;;;;;;20.40;45.40;;;;;;5085593;28;20279;-58
2023/05/25 00:21:14;;;;;;;;;;;20.40;45.40;;;;;;5068887;28;20090;-59
2023/05/25 00:23:41;;;;;;;;;;;20.40;45.40;;;;;;5107163;28;19959;-59
2023/05/25 00:26:07;;;;;;;;;;;20.40;45.40;;;;;;5071505;28;19964;-59
2023/05/25 00:28:34;;;;;;;;;;;20.40;45.40;;;;;;5069362;28;20381;-58
2023/05/25 00:31:01;;;;;;;;;;;20.40;45.30;;;;;;5072142;28;20404;-59
2023/05/25 00:33:29;;;;;;;;;;;20.40;45.30;;;;;;5069612;28;19921;-58
2023/05/25 00:35:57;;;;;;;;;;;20.40;45.40;;;;;;5073428;28;20081;-59
2023/05/25 00:38:24;;;;;;;;;;;20.40;45.30;;;;;;5074019;28;19970;-59
2023/05/25 00:40:54;;;;;;;;;;;20.40;45.30;;;;;;5056755;28;19924;-59
2023/05/25 00:43:21;;;;;;;;;;;20.40;45.30;;;;;;5073766;28;19921;-59
2023/05/25 00:45:48;;;;;;;;;;;20.40;45.30;;;;;;5074488;28;19951;-59
2023/05/25 00:48:14;;;;;;;;;;;20.40;45.20;;;;;;5074191;28;19920;-59
2023/05/25 00:50:43;;;;;;;;;;;20.40;45.20;;;;;;5089328;28;19920;-59
2023/05/25 00:53:10;;;;;;;;;;;20.40;45.20;;;;;;5093886;28;19924;-59
2023/05/25 00:55:37;;;;;;;;;;;20.40;45.20;;;;;;5093804;28;19962;-59
2023/05/25 00:58:04;;;;;;;;;;;20.40;45.20;;;;;;5089525;28;19959;-59
2023/05/25 01:00:31;;;;;;;;;;;20.40;45.20;;;;;;5107440;28;19920;-59
2023/05/25 01:02:58;;;;;;;;;;;20.40;45.20;;;;;;5072669;28;19921;-59
2023/05/25 01:05:27;;;;;;;;;;;20.40;45.20;;;;;;5073779;28;19977;-59
2023/05/25 01:07:56;;;;;;;;;;;20.40;45.20;;;;;;5072687;28;19920;-59
2023/05/25 01:10:23;;;;;;;;;;;20.40;45.20;;;;;;5104936;28;19925;-59
2023/05/25 01:12:50;;;;;;;;;;;20.40;45.20;;;;;;5072883;28;19924;-59
2023/05/25 01:15:17;;;;;;;;;;;20.40;45.10;;;;;;5077187;28;19924;-59
2023/05/25 01:17:44;;;;;;;;;;;20.40;45.10;;;;;;5093508;28;19928;-58
2023/05/25 01:20:11;;;;;;;;;;;20.40;45.10;;;;;;5092855;28;20308;-58
2023/05/25 01:22:40;;;;;;;;;;;20.40;45.70;;;;;;5093202;28;19927;-58
2023/05/25 01:25:08;;;;;;;;;;;20.40;45.10;;;;;;5092810;28;19920;-58
2023/05/25 01:27:37;;;;;;;;;;;20.40;45.10;;;;;;5093047;28;19987;-58
2023/05/25 01:30:04;;;;;;;;;;;20.40;45.10;;;;;;5087977;28;19932;-58
2023/05/25 01:32:31;;;;;;;;;;;20.40;45.10;;;;;;5071235;28;20313;-58
2023/05/25 01:34:57;;;;;;;;;;;20.40;45.10;;;;;;5071267;28;19927;-58
2023/05/25 01:37:25;;;;;;;;;;;20.40;45.10;;;;;;5070851;28;19920;-58
2023/05/25 01:39:53;;;;;;;;;;;20.40;45.10;;;;;;5072337;28;19921;-58
2023/05/25 01:42:20;;;;;;;;;;;20.40;45.10;;;;;;5061062;28;20382;-59
2023/05/25 01:44:47;;;;;;;;;;;20.40;45.10;;;;;;5071201;28;19921;-59
2023/05/25 01:47:15;;;;;;;;;;;20.40;45.10;;;;;;5076074;28;19928;-58
2023/05/25 01:49:43;;;;;;;;;;;20.40;45.10;;;;;;5080064;28;19987;-58
2023/05/25 01:52:13;;;;;;;;;;;20.40;45.10;;;;;;5072744;28;19966;-58
2023/05/25 01:54:40;;;;;;;;;;;20.40;45.10;;;;;;5071116;28;19920;-58
2023/05/25 01:57:10;;;;;;;;;;;20.40;45.10;;;;;;5070394;28;20024;-57
2023/05/25 01:59:36;;;;;;;;;;;20.40;45.10;;;;;;5071537;28;19920;-58
2023/05/25 02:02:03;;;;;;;;;;;20.40;45.10;;;;;;5078209;28;19924;-58
2023/05/25 02:04:30;;;;;;;;;;;20.40;45.10;;;;;;5070294;28;19951;-58
2023/05/25 02:06:57;;;;;;;;;;;20.40;45.10;;;;;;5076894;28;19927;-59
2023/05/25 02:09:24;;;;;;;;;;;20.40;45.10;;;;;;5070556;28;19932;-58
2023/05/25 02:11:50;;;;;;;;;;;20.40;45.10;;;;;;5088282;28;19921;-58
2023/05/25 02:14:19;;;;;;;;;;;20.40;45.10;;;;;;5070141;28;19966;-59
2023/05/25 02:16:46;;;;;;;;;;;20.40;45.10;;;;;;5075684;28;19927;-59
2023/05/25 02:19:13;;;;;;;;;;;20.40;45.10;;;;;;5077136;28;19920;-59
2023/05/25 02:21:40;;;;;;;;;;;20.40;45.10;;;;;;5096716;28;19920;-59
2023/05/25 02:24:08;;;;;;;;;;;20.40;45.10;;;;;;5096624;28;19924;-59
2023/05/25 02:26:35;;;;;;;;;;;20.40;45.10;;;;;;5096077;28;19920;-59
2023/05/25 02:29:02;;;;;;;;;;;20.40;45.10;;;;;;5096358;28;19927;-59
2023/05/25 02:31:30;;;;;;;;;;;20.40;45.10;;;;;;5097632;28;19920;-59
2023/05/25 02:33:57;;;;;;;;;;;20.40;45.10;;;;;;5096339;28;20010;-59
2023/05/25 02:36:23;;;;;;;;;;;20.40;45.10;;;;;;5093049;28;19920;-59
2023/05/25 02:38:51;;;;;;;;;;;20.40;45.10;;;;;;5110128;28;19994;-59
2023/05/25 02:41:18;;;;;;;;;;;20.40;45.10;;;;;;5077374;28;19920;-59
2023/05/25 02:43:45;;;;;;;;;;;20.40;45.10;;;;;;5076939;28;19971;-59
2023/05/25 02:46:11;;;;;;;;;;;20.40;45.00;;;;;;5077117;28;20339;-59
2023/05/25 02:48:41;;;;;;;;;;;20.30;44.90;;;;;;5076816;28;19920;-59
2023/05/25 02:51:08;;;;;;;;;;;20.40;45.00;;;;;;5109540;28;19920;-59
2023/05/25 02:53:35;;;;;;;;;;;20.30;45.00;;;;;;5076700;28;19947;-59
2023/05/25 02:56:02;;;;;;;;;;;20.30;44.90;;;;;;5075695;28;20118;-59
2023/05/25 02:58:29;;;;;;;;;;;20.30;45.00;;;;;;5075616;28;19944;-59
2023/05/25 03:00:58;;;;;;;;;;;20.30;45.00;;;;;;5075932;28;19973;-59
2023/05/25 03:03:25;;;;;;;;;;;20.30;45.00;;;;;;5075379;28;19920;-59
2023/05/25 03:05:53;;;;;;;;;;;20.30;45.00;;;;;;5076112;28;19921;-59
2023/05/25 03:08:20;;;;;;;;;;;20.30;45.00;;;;;;5109080;28;19925;-59
2023/05/25 03:10:47;;;;;;;;;;;20.30;45.00;;;;;;5076057;28;19950;-59
2023/05/25 03:13:14;;;;;;;;;;;20.30;45.00;;;;;;5074770;28;20480;-59
2023/05/25 03:15:40;;;;;;;;;;;20.30;45.00;;;;;;5075606;28;19920;-59
2023/05/25 03:18:07;;;;;;;;;;;20.30;45.00;;;;;;5075107;28;19989;-59
2023/05/25 03:20:34;;;;;;;;;;;20.30;45.00;;;;;;5107804;28;19925;-59
2023/05/25 03:23:02;;;;;;;;;;;20.40;45.10;;;;;;5075510;28;19925;-59
2023/05/25 03:25:29;;;;;;;;;;;20.30;45.00;;;;;;5075630;28;19974;-59
2023/05/25 03:27:56;;;;;;;;;;;20.30;45.00;;;;;;5075581;28;19920;-59
2023/05/25 03:30:22;;;;;;;;;;;20.30;45.00;;;;;;5075395;28;19964;-59
2023/05/25 03:32:49;;;;;;;;;;;20.30;45.10;;;;;;5075095;28;19946;-58
2023/05/25 03:35:16;;;;;;;;;;;20.30;45.00;;;;;;5083037;28;19974;-59
2023/05/25 03:37:43;;;;;;;;;;;20.30;45.10;;;;;;5074768;28;20045;-59
2023/05/25 03:40:11;;;;;;;;;;;20.30;45.10;;;;;;5075907;28;19966;-59
2023/05/25 03:42:38;;;;;;;;;;;20.30;45.10;;;;;;5106846;28;19989;-59
2023/05/25 03:45:07;;;;;;;;;;;20.30;45.40;;;;;;5074244;28;19925;-59
2023/05/25 03:47:34;;;;;;;;;;;20.30;45.10;;;;;;5074867;28;20484;-59
2023/05/25 03:50:01;;;;;;;;;;;20.30;45.10;;;;;;5108756;28;20028;-59
2023/05/25 03:52:28;;;;;;;;;;;20.30;45.10;;;;;;5074465;28;19943;-59
2023/05/25 03:54:55;;;;;;;;;;;20.30;45.20;;;;;;5074093;28;19924;-59
2023/05/25 03:57:23;;;;;;;;;;;20.30;45.20;;;;;;5073899;28;19928;-59
2023/05/25 03:59:49;;;;;;;;;;;20.30;45.20;;;;;;5074418;28;19928;-59
2023/05/25 04:02:16;;;;;;;;;;;20.30;45.20;;;;;;5075635;28;19970;-59
2023/05/25 04:04:44;;;;;;;;;;;20.20;45.20;;;;;;5074377;28;19970;-59
2023/05/25 04:07:10;;;;;;;;;;;20.20;45.20;;;;;;5106493;28;19920;-59
2023/05/25 04:09:37;;;;;;;;;;;20.20;45.20;;;;;;5073932;28;19920;-59
2023/05/25 04:12:04;;;;;;;;;;;20.20;45.30;;;;;;5072366;28;19921;-59
2023/05/25 04:14:32;;;;;;;;;;;20.20;45.30;;;;;;5075204;28;19920;-59
2023/05/25 04:16:59;;;;;;;;;;;20.20;45.30;;;;;;5073599;28;19966;-59
2023/05/25 04:19:26;;;;;;;;;;;20.20;45.40;;;;;;5073531;28;19920;-59
2023/05/25 04:21:52;;;;;;;;;;;20.20;45.40;;;;;;5074144;28;20305;-59
2023/05/25 04:24:19;;;;;;;;;;;20.20;45.40;;;;;;5073734;28;19998;-59
2023/05/25 04:26:46;;;;;;;;;;;20.20;45.40;;;;;;5074978;28;19921;-59
2023/05/25 04:29:13;;;;;;;;;;;20.20;45.40;;;;;;5073520;28;19920;-59
2023/05/25 04:31:43;;;;;;;;;;;20.20;45.50;;;;;;5073628;28;20282;-58
2023/05/25 04:34:10;;;;;;;;;;;20.10;45.40;;;;;;5054111;28;19921;-59
2023/05/25 04:36:37;;;;;;;;;;;20.10;45.40;;;;;;5070401;28;19920;-58
2023/05/25 04:39:04;;;;;;;;;;;20.10;45.40;;;;;;5069999;28;20390;-58
2023/05/25 04:41:32;;;;;;;;;;;20.10;45.40;;;;;;5073442;28;19956;-58
2023/05/25 04:44:00;;;;;;;;;;;20.10;45.40;;;;;;5074567;28;19920;-58
2023/05/25 04:46:26;;;;;;;;;;;20.10;45.40;;;;;;5073429;28;19924;-58
2023/05/25 04:48:54;;;;;;;;;;;20.00;45.40;;;;;;5073194;28;19924;-58
2023/05/25 04:51:21;;;;;;;;;;;20.00;45.40;;;;;;5078898;28;19974;-58
2023/05/25 04:53:48;;;;;;;;;;;20.00;45.40;;;;;;5092033;28;19955;-58
2023/05/25 04:56:15;;;;;;;;;;;20.00;45.40;;;;;;5095154;28;19969;-58
2023/05/25 04:58:42;;;;;;;;;;;20.00;45.40;;;;;;5076998;28;19959;-58
2023/05/25 05:01:08;;;;;;;;;;;20.00;45.40;;;;;;5070783;28;19921;-58
2023/05/25 05:03:36;;;;;;;;;;;20.00;45.40;;;;;;5074052;28;19924;-58
2023/05/25 05:06:04;;;;;;;;;;;20.00;45.40;;;;;;5070799;28;19942;-59
2023/05/25 05:08:31;;;;;;;;;;;20.00;45.30;;;;;;5079237;28;19924;-59
2023/05/25 05:10:58;;;;;;;;;;;20.00;45.40;;;;;;5070889;28;19920;-58
2023/05/25 05:13:24;;;;;;;;;;;20.00;45.30;;;;;;5071756;28;19924;-58
2023/05/25 05:15:52;;;;;;;;;;;20.00;45.30;;;;;;5073787;28;19927;-59
2023/05/25 05:18:19;;;;;;;;;;;20.00;45.40;;;;;;5082974;28;20049;-59
2023/05/25 05:20:46;;;;;;;;;;;20.00;45.40;;;;;;5078797;28;19924;-58
2023/05/25 05:23:14;;;;;;;;;;;20.00;45.40;;;;;;5070976;28;19978;-59
2023/05/25 05:25:41;;;;;;;;;;;20.00;45.40;;;;;;5069015;28;19966;-59
2023/05/25 05:28:07;;;;;;;;;;;20.00;45.40;;;;;;5070211;28;19964;-58
2023/05/25 05:30:34;;;;;;;;;;;20.00;45.40;;;;;;5069914;28;19929;-58
2023/05/25 05:33:02;;;;;;;;;;;20.00;45.40;;;;;;5074974;28;19920;-59
2023/05/25 05:35:28;;;;;;;;;;;20.00;45.40;;;;;;5081053;28;19968;-58
2023/05/25 05:37:55;;;;;;;;;;;20.00;45.40;;;;;;5070428;28;19928;-58
2023/05/25 05:40:24;;;;;;;;;;;20.00;45.40;;;;;;5070335;28;19920;-58
2023/05/25 05:42:51;;;;;;;;;;;20.00;45.40;;;;;;5063367;28;19921;-58
2023/05/25 05:45:18;;;;;;;;;;;19.90;45.30;;;;;;5071580;28;19921;-59
2023/05/25 05:47:45;;;;;;;;;;;19.90;45.30;;;;;;5077842;28;19966;-58
2023/05/25 05:50:11;;;;;;;;;;;19.90;45.30;;;;;;5072424;28;19927;-59
2023/05/25 05:52:38;;;;;;;;;;;19.90;45.90;;;;;;5075785;28;20359;-59
2023/05/25 05:55:05;;;;;;;;;;;19.90;45.40;;;;;;5076686;28;19926;-58
2023/05/25 05:57:33;;;;;;;;;;;19.90;45.40;;;;;;5078068;28;19921;-59
2023/05/25 06:00:00;;;;;;;;;;;19.90;45.40;;;;;;5078058;28;19946;-59
2023/05/25 06:02:27;;;;;;;;;;;19.90;45.40;;;;;;5072211;28;19924;-59
2023/05/25 06:04:53;;;;;;;;;;;19.90;45.40;;;;;;5077723;28;20018;-59
2023/05/25 06:07:21;;;;;;;;;;;19.90;45.40;;;;;;5071287;28;19966;-58
2023/05/25 06:09:47;;;;;;;;;;;19.90;45.40;;;;;;5056352;28;19920;-58
2023/05/25 06:12:14;;;;;;;;;;;19.90;45.40;;;;;;5056830;28;20228;-58
2023/05/25 06:14:42;;;;;;;;;;;19.90;45.40;;;;;;5054507;28;19921;-58
2023/05/25 06:17:09;;;;;;;;;;;19.90;45.40;;;;;;5067401;28;19921;-59
2023/05/25 06:19:35;;;;;;;;;;;19.90;45.40;;;;;;5080016;28;19985;-60
2023/05/25 06:22:02;;;;;;;;;;;19.90;45.50;;;;;;5074131;28;19920;-59
2023/05/25 06:24:30;;;;;;;;;;;19.90;45.40;;;;;;5073988;28;19924;-59
2023/05/25 06:26:57;;;;;;;;;;;20.00;45.50;;;;;;5059679;28;20332;-57
2023/05/25 06:29:24;;;;;;;;;;;20.00;46.10;;;;;;5076009;28;19921;-58
2023/05/25 06:31:52;;;;;;;;;;;20.00;45.60;;;;;;5109855;28;19966;-58
2023/05/25 06:34:19;;;;;;;;;;;20.00;45.50;;;;;;5075909;28;19925;-59
2023/05/25 06:36:46;;;;;;;;;;;20.00;45.50;;;;;;5077101;28;19974;-58
2023/05/25 06:39:13;;;;;;;;;;;20.00;45.50;;;;;;5058915;28;19942;-58
2023/05/25 06:41:40;;;;;;;;;;;20.00;45.50;;;;;;5087091;28;20316;-59
2023/05/25 06:44:07;;;;;;;;;;;20.00;45.40;;;;;;5096896;28;19920;-59
2023/05/25 06:46:33;;;;;;;;;;;20.00;45.40;;;;;;5096431;28;19920;-58
2023/05/25 06:49:01;;;;;;;;;;;20.00;45.40;;;;;;5096538;28;19974;-58
2023/05/25 06:51:28;;;;;;;;;;;20.00;45.30;;;;;;5097063;28;19920;-58
2023/05/25 06:53:55;;;;;;;;;;;20.00;45.30;;;;;;5095428;28;19920;-58
2023/05/25 06:56:22;;;;;;;;;;;20.00;45.20;;;;;;5096752;28;20023;-58
2023/05/25 06:58:49;;;;;;;;;;;20.10;45.30;;;;;;5096969;28;19920;-59
2023/05/25 07:01:16;;;;;;;;;;;20.10;45.30;;;;;;5096832;28;19920;-59
2023/05/25 07:03:43;;;;;;;;;;;20.10;45.40;;;;;;5095530;28;19927;-59
2023/05/25 07:06:11;;;;;;;;;;;20.10;45.40;;;;;;5097228;28;19965;-58
2023/05/25 07:08:38;;;;;;;;;;;20.20;45.50;;;;;;5095589;28;20074;-58
2023/05/25 07:11:07;;;;;;;;;;;20.20;45.50;;;;;;5094801;28;19973;-58
2023/05/25 07:13:34;;;;;;;;;;;20.20;45.50;;;;;;5095933;28;20285;-58
2023/05/25 07:16:01;;;;;;;;;;;20.20;45.50;;;;;;5095864;28;19920;-59
2023/05/25 07:18:28;;;;;;;;;;;20.30;45.60;;;;;;5071867;28;20022;-59
2023/05/25 07:20:54;;;;;;;;;;;20.30;45.50;;;;;;5073306;28;19924;-59
2023/05/25 07:23:23;;;;;;;;;;;20.30;45.50;;;;;;5077520;28;19924;-60
2023/05/25 07:25:49;;;;;;;;;;;20.40;45.60;;;;;;5073309;28;19970;-59
2023/05/25 07:28:16;;;;;;;;;;;20.40;45.60;;;;;;5072726;28;19921;-60
2023/05/25 07:30:43;;;;;;;;;;;20.40;45.70;;;;;;5075557;28;19920;-59
2023/05/25 07:33:10;;;;;;;;;;;20.40;45.70;;;;;;5074811;28;19920;-60
2023/05/25 07:35:36;;;;;;;;;;;20.40;45.70;;;;;;5074961;28;19969;-60
2023/05/25 07:38:04;;;;;;;;;;;20.40;45.70;;;;;;5108398;28;19925;-60
2023/05/25 07:40:32;;;;;;;;;;;20.50;45.70;;;;;;5069705;28;19968;-60
2023/05/25 07:42:59;;;;;;;;;;;20.50;45.70;;;;;;5057024;28;19925;-60
2023/05/25 07:45:26;;;;;;;;;;;20.50;45.70;;;;;;5053602;28;19921;-60
2023/05/25 07:47:52;;;;;;;;;;;20.50;45.70;;;;;;5056025;28;19982;-61
2023/05/25 07:50:19;;;;;;;;;;;20.50;45.70;;;;;;5053839;28;20339;-58
2023/05/25 07:52:46;;;;;;;;;;;20.50;45.70;;;;;;5075616;28;19924;-59
2023/05/25 07:55:13;;;;;;;;;;;20.50;45.70;;;;;;5056101;28;19970;-58
2023/05/25 07:57:41;;;;;;;;;;;20.60;45.80;;;;;;5058760;28;19921;-58
2023/05/25 08:00:09;;;;;;;;;;;20.60;45.80;;;;;;5066216;28;19921;-59
2023/05/25 08:02:36;;;;;;;;;;;20.60;45.80;;;;;;5072667;28;19924;-60
2023/05/25 08:05:04;;;;;;;;;;;20.60;45.80;;;;;;5087369;28;20031;-59
2023/05/25 08:07:32;;;;;;;;;;;20.60;45.80;;;;;;5085436;28;19927;-61
2023/05/25 08:09:58;;;;;;;;;;;20.60;45.70;;;;;;5098558;28;19974;-59
2023/05/25 08:12:25;;;;;;;;;;;20.60;45.70;;;;;;5079933;28;19975;-61
2023/05/25 08:14:54;;;;;;;;;;;20.60;45.60;;;;;;5053831;28;19920;-58
2023/05/25 08:17:20;;;;;;;;;;;20.70;45.80;;;;;;5083673;28;19927;-60
2023/05/25 08:19:47;;;;;;;;;;;20.70;45.80;;;;;;5071011;28;19920;-59
2023/05/25 08:22:14;;;;;;;;;;;20.70;45.80;;;;;;5084868;28;19921;-59
2023/05/25 08:24:41;;;;;;;;;;;20.70;45.70;;;;;;5104917;28;19970;-59
2023/05/25 08:27:07;;;;;;;;;;;20.70;45.70;;;;;;5081391;28;19924;-60
2023/05/25 08:29:34;;;;;;;;;;;20.70;45.70;;;;;;5070170;28;19921;-60
2023/05/25 08:32:02;;;;;;;;;;;20.70;45.70;;;;;;5063815;28;19921;-60
2023/05/25 08:34:29;;;;;;;;;;;20.70;45.70;;;;;;5089523;28;19924;-59
2023/05/25 08:36:56;;;;;;;;;;;20.70;45.70;;;;;;5070991;28;19978;-59
2023/05/25 08:39:23;;;;;;;;;;;20.70;45.70;;;;;;5070249;28;19921;-58
2023/05/25 08:41:50;;;;;;;;;;;20.70;45.70;;;;;;5073473;28;19970;-59
2023/05/25 08:44:17;;;;;;;;;;;20.70;45.70;;;;;;5061774;28;19943;-60
2023/05/25 08:46:43;;;;;;;;;;;20.70;45.70;;;;;;5107348;28;19952;-61
2023/05/25 08:49:12;;;;;;;;;;;20.80;45.80;;;;;;5073929;28;19920;-59
2023/05/25 08:51:39;;;;;;;;;;;20.70;45.70;;;;;;5073698;28;20034;-60
2023/05/25 08:54:07;;;;;;;;;;;20.80;45.80;;;;;;5072896;28;19977;-60
2023/05/25 08:56:34;;;;;;;;;;;20.80;45.80;;;;;;5107902;28;19920;-61
2023/05/25 08:59:02;;;;;;;;;;;20.80;45.80;;;;;;5074374;28;19974;-60
2023/05/25 09:01:47;;;;;;;;;;;20.80;45.80;;;;;;5112280;27;19912;-60
2023/05/25 09:04:16;;;;;;;;;;;20.90;45.90;;;;;;5107902;28;19920;-60
2023/05/25 09:06:44;;;;;;;;;;;20.80;45.80;;;;;;5106966;28;19963;-60
2023/05/25 09:09:11;;;;;;;;;;;20.90;46.50;;;;;;5125760;28;19927;-60
2023/05/25 09:11:38;;;;;;;;;;;20.90;46.00;;;;;;5110905;28;19920;-60
2023/05/25 09:14:05;;;;;;;;;;;20.90;46.00;;;;;;5108404;28;19997;-60
2023/05/25 09:16:31;;;;;;;;;;;20.90;46.00;;;;;;5111954;28;19919;-60
2023/05/25 09:19:00;;;;;;;;;;;20.90;46.00;;;;;;5108236;28;19935;-61
2023/05/25 09:21:26;;;;;;;;;;;20.90;46.00;;;;;;5127928;28;19920;-60
2023/05/25 09:23:53;;;;;;;;;;;21.00;46.10;;;;;;5127197;28;19928;-61
2023/05/25 09:26:20;;;;;;;;;;;21.00;46.10;;;;;;5111470;28;20403;-60
2023/05/25 09:28:46;;;;;;;;;;;21.00;46.10;;;;;;5110402;28;19959;-61
2023/05/25 09:31:14;;;;;;;;;;;21.00;46.10;;;;;;5113156;28;19920;-61
2023/05/25 09:33:41;;;;;;;;;;;21.00;46.10;;;;;;5125015;27;19920;-60
2023/05/25 09:36:09;;;;;;;;;;;21.00;46.10;;;;;;5126992;28;19934;-61
2023/05/25 09:38:36;;;;;;;;;;;21.00;46.10;;;;;;5127017;28;19924;-61
2023/05/25 09:41:04;;;;;;;;;;;21.00;46.10;;;;;;5110033;28;19967;-60
2023/05/25 09:43:31;;;;;;;;;;;21.00;46.10;;;;;;5126734;28;19969;-61
2023/05/25 09:45:58;;;;;;;;;;;21.10;46.20;;;;;;5108644;28;19942;-61
2023/05/25 09:48:25;;;;;;;;;;;21.00;46.20;;;;;;5110228;28;19970;-61
2023/05/25 09:50:52;;;;;;;;;;;21.10;46.30;;;;;;5125273;27;19920;-61
2023/05/25 09:53:20;;;;;;;;;;;21.10;46.30;;;;;;5111035;28;19950;-61
2023/05/25 09:55:48;;;;;;;;;;;21.10;46.30;;;;;;5124626;27;20316;-60
2023/05/25 09:58:15;;;;;;;;;;;21.10;46.30;;;;;;5112118;28;19927;-61
2023/05/25 10:00:41;;;;;;;;;;;21.10;46.30;;;;;;5128049;28;19970;-62
2023/05/25 10:03:08;;;;;;;;;;;21.10;46.30;;;;;;5127090;28;19920;-60
2023/05/25 10:05:35;;;;;;;;;;;21.20;46.40;;;;;;5107242;28;19963;-61
2023/05/25 10:08:02;;;;;;;;;;;21.10;46.30;;;;;;5112580;28;19920;-61
2023/05/25 10:10:30;;;;;;;;;;;21.20;46.40;;;;;;5113137;28;19920;-61
2023/05/25 10:12:57;;;;;;;;;;;21.20;46.40;;;;;;5097505;28;19931;-61
2023/05/25 10:15:24;;;;;;;;;;;21.10;46.30;;;;;;5098202;28;19974;-60
2023/05/25 10:17:52;;;;;;;;;;;21.10;46.30;;;;;;5111620;28;19920;-60
2023/05/25 10:20:19;;;;;;;;;;;21.20;46.40;;;;;;5094338;28;20362;-60
2023/05/25 10:22:48;;;;;;;;;;;21.20;46.40;;;;;;5095596;28;20324;-61
2023/05/25 10:25:16;;;;;;;;;;;21.10;46.30;;;;;;5094219;28;20423;-60
2023/05/25 10:27:47;;;;;;;;;;;21.10;46.30;;;;;;5077008;28;20018;-59
2023/05/25 10:30:14;;;;;;;;;;;21.10;46.30;;;;;;5102093;28;19977;-60
2023/05/25 10:32:41;;;;;;;;;;;21.20;46.40;;;;;;5096474;28;19970;-60
2023/05/25 10:35:08;;;;;;;;;;;21.20;46.40;;;;;;5095159;28;19920;-60
2023/05/25 10:37:35;;;;;;;;;;;21.20;46.40;;;;;;5112712;28;19920;-60
2023/05/25 10:40:02;;;;;;;;;;;21.20;46.40;;;;;;5112942;28;19942;-59
2023/05/25 10:42:29;;;;;;;;;;;21.20;46.40;;;;;;5113425;28;19955;-61
2023/05/25 10:44:57;;;;;;;;;;;21.20;46.40;;;;;;5093343;28;19924;-61
2023/05/25 10:47:24;;;;;;;;;;;21.20;46.40;;;;;;5112009;28;19969;-61
2023/05/25 10:49:51;;;;;;;;;;;21.20;46.40;;;;;;5096400;28;20014;-61
2023/05/25 10:52:18;;;;;;;;;;;21.20;46.40;;;;;;5112226;28;20211;-61
2023/05/25 10:54:44;;;;;;;;;;;21.20;46.40;;;;;;5096185;28;19920;-61
2023/05/25 10:57:12;;;;;;;;;;;21.20;46.40;;;;;;5096020;28;19927;-61
2023/05/25 10:59:44;;;;;;;;;;;21.20;46.30;;;;;;5094946;28;19935;-60
2023/05/25 11:02:12;;;;;;;;;;;21.20;46.30;;;;;;5113202;28;19992;-60
2023/05/25 11:04:39;;;;;;;;;;;21.20;46.20;;;;;;5116242;28;19920;-61
2023/05/25 11:07:12;;;;;;;;;;;21.20;46.20;;;;;;5116146;28;19920;-61
2023/05/25 11:09:43;;;;;;;;;;;21.20;46.10;;;;;;5115584;28;19920;-61
2023/05/25 11:12:20;;;;;;;;;;;21.20;46.10;;;;;;5114878;28;20010;-61
2023/05/25 11:15:01;;;;;;;;;;;21.20;46.00;;;;;;5115625;28;19930;-61
2023/05/25 11:17:31;;;;;;;;;;;21.20;46.00;;;;;;5101857;28;19959;-61
2023/05/25 11:20:01;;;;;;;;;;;21.10;45.80;;;;;;5099355;28;19966;-61
2023/05/25 11:22:30;;;;;;;;;;;21.10;45.80;;;;;;5089656;28;19931;-60
2023/05/25 11:24:57;;;;;;;;;;;21.10;45.80;;;;;;5093167;28;20395;-60
2023/05/25 11:27:24;;;;;;;;;;;21.10;45.70;;;;;;5094170;28;19966;-60
2023/05/25 11:29:51;;;;;;;;;;;21.10;45.60;;;;;;5095667;28;19920;-59
2023/05/25 11:32:18;;;;;;;;;;;21.10;45.70;;;;;;5093404;28;19924;-60
2023/05/25 11:34:46;;;;;;;;;;;21.10;45.60;;;;;;5090111;28;19920;-61
2023/05/25 11:37:14;;;;;;;;;;;21.10;45.60;;;;;;5108487;28;19920;-61
2023/05/25 11:39:41;;;;;;;;;;;21.10;45.50;;;;;;5093779;28;19982;-61
2023/05/25 11:42:10;;;;;;;;;;;21.10;45.50;;;;;;5093757;28;19955;-60
2023/05/25 11:44:37;;;;;;;;;;;21.10;45.50;;;;;;5095077;28;20373;-61
2023/05/25 11:47:07;;;;;;;;;;;21.10;45.50;;;;;;5074987;28;19927;-61
2023/05/25 11:49:34;;;;;;;;;;;21.10;45.50;;;;;;5089358;28;19920;-60
2023/05/25 11:52:05;;;;;;;;;;;21.10;45.40;;;;;;5113417;27;19981;-60
2023/05/25 11:54:32;;;;;;;;;;;21.20;45.50;;;;;;5107200;28;20403;-60
2023/05/25 11:56:58;;;;;;;;;;;21.20;45.50;;;;;;5107607;28;19977;-60
2023/05/25 11:59:25;;;;;;;;;;;21.20;45.50;;;;;;5106687;28;19920;-60
2023/05/25 12:01:56;;;;;;;;;;;21.20;45.50;;;;;;5092404;28;19943;-60
2023/05/25 12:04:22;;;;;;;;;;;21.20;45.60;;;;;;5089408;28;19919;-59
2023/05/25 12:06:49;;;;;;;;;;;21.20;45.60;;;;;;5089908;28;19996;-60
2023/05/25 12:09:21;;;;;;;;;;;21.20;45.50;;;;;;5089065;28;19973;-60
2023/05/25 12:11:48;;;;;;;;;;;21.20;45.50;;;;;;5107066;28;20006;-59
2023/05/25 12:14:15;;;;;;;;;;;21.30;45.60;;;;;;5088951;28;19927;-59
2023/05/25 12:16:42;;;;;;;;;;;21.30;45.60;;;;;;5107458;28;19920;-60
2023/05/25 12:19:10;;;;;;;;;;;21.30;45.60;;;;;;5099074;28;19928;-61
2023/05/25 12:21:37;;;;;;;;;;;21.30;45.60;;;;;;5078466;28;19927;-60
2023/05/25 12:24:04;;;;;;;;;;;21.30;45.70;;;;;;5106341;28;19963;-61
2023/05/25 12:26:33;;;;;;;;;;;21.30;45.70;;;;;;5107476;28;19927;-60
2023/05/25 12:29:00;;;;;;;;;;;21.30;45.70;;;;;;5093003;28;19974;-59
2023/05/25 12:31:27;;;;;;;;;;;21.30;45.70;;;;;;5090513;28;19969;-59
2023/05/25 12:34:04;;;;;;;;;;;21.30;45.70;;;;;;5107631;28;19924;-60
2023/05/25 12:36:43;;;;;;;;;;;21.30;45.70;;;;;;5109785;28;20278;-60
2023/05/25 12:39:11;;;;;;;;;;;21.30;45.70;;;;;;5092122;28;19920;-59
2023/05/25 12:41:46;;;;;;;;;;;21.30;45.80;;;;;;5091020;28;20019;-60
2023/05/25 12:44:20;;;;;;;;;;;21.40;45.90;;;;;;5107924;28;19920;-60
2023/05/25 12:46:46;;;;;;;;;;;21.30;45.80;;;;;;5110341;28;19967;-60
2023/05/25 12:49:23;;;;;;;;;;;21.30;45.80;;;;;;5110500;28;19973;-60
2023/05/25 12:51:50;;;;;;;;;;;21.40;45.90;;;;;;5093887;28;20018;-59
2023/05/25 12:54:17;;;;;;;;;;;21.40;46.00;;;;;;5090707;28;19970;-60
2023/05/25 12:56:55;;;;;;;;;;;21.40;46.00;;;;;;5094062;28;19966;-60
2023/05/25 12:59:22;;;;;;;;;;;21.40;46.00;;;;;;5090587;28;19956;-60
2023/05/25 13:01:48;;;;;;;;;;;21.40;46.00;;;;;;5090572;28;19931;-61
2023/05/25 13:04:15;;;;;;;;;;;21.40;46.00;;;;;;5106005;28;20423;-59
2023/05/25 13:06:42;;;;;;;;;;;21.40;46.00;;;;;;5089006;28;19927;-60
2023/05/25 13:09:09;;;;;;;;;;;21.40;46.00;;;;;;5093219;28;20377;-60
2023/05/25 13:11:35;;;;;;;;;;;21.40;46.10;;;;;;5092407;28;19920;-60
2023/05/25 13:14:03;;;;;;;;;;;21.40;46.10;;;;;;5092516;28;19920;-60
2023/05/25 13:16:30;;;;;;;;;;;21.40;46.10;;;;;;5093339;28;19920;-60
2023/05/25 13:18:58;;;;;;;;;;;21.40;46.10;;;;;;5093739;28;19928;-60
2023/05/25 13:21:25;;;;;;;;;;;21.40;46.10;;;;;;5110454;28;19920;-61
2023/05/25 13:23:52;;;;;;;;;;;21.40;46.10;;;;;;5092215;28;19920;-60
2023/05/25 13:26:19;;;;;;;;;;;21.50;46.20;;;;;;5109276;28;19950;-60
2023/05/25 13:28:46;;;;;;;;;;;21.50;46.20;;;;;;5091998;28;19920;-60
2023/05/25 13:31:14;;;;;;;;;;;21.40;46.10;;;;;;5090690;28;20457;-60
2023/05/25 13:33:41;;;;;;;;;;;21.40;46.10;;;;;;5092702;28;19920;-60
2023/05/25 13:36:08;;;;;;;;;;;21.50;46.20;;;;;;5090316;28;19920;-60
2023/05/25 13:38:35;;;;;;;;;;;21.50;46.20;;;;;;5109424;28;20010;-60
2023/05/25 13:41:01;;;;;;;;;;;21.50;46.20;;;;;;5108936;28;19924;-61
2023/05/25 13:43:28;;;;;;;;;;;21.50;46.20;;;;;;5092115;28;19931;-61
2023/05/25 13:45:57;;;;;;;;;;;21.50;46.20;;;;;;5091149;28;19920;-60
2023/05/25 13:48:25;;;;;;;;;;;21.50;46.20;;;;;;5113433;28;19927;-60
2023/05/25 13:50:52;;;;;;;;;;;21.50;46.20;;;;;;5113952;28;19920;-60
2023/05/25 13:53:19;;;;;;;;;;;21.50;46.20;;;;;;5097243;28;19924;-59
2023/05/25 13:55:45;;;;;;;;;;;21.50;46.20;;;;;;5096049;28;20023;-60
2023/05/25 13:58:12;;;;;;;;;;;21.50;46.30;;;;;;5113354;28;19920;-59
2023/05/25 14:00:39;;;;;;;;;;;21.50;46.30;;;;;;5112607;28;19924;-59
2023/05/25 14:03:06;;;;;;;;;;;21.50;46.30;;;;;;5097053;28;19974;-60
2023/05/25 14:05:34;;;;;;;;;;;21.50;46.30;;;;;;5110783;28;19956;-61
2023/05/25 14:08:03;;;;;;;;;;;21.50;46.30;;;;;;5095956;28;19920;-61
2023/05/25 14:10:30;;;;;;;;;;;21.50;46.30;;;;;;5092352;28;19928;-61
2023/05/25 14:12:57;;;;;;;;;;;21.50;46.30;;;;;;5076573;28;19921;-60
2023/05/25 14:15:24;;;;;;;;;;;21.50;46.30;;;;;;5075819;28;19920;-60
2023/05/25 14:17:51;;;;;;;;;;;21.50;46.30;;;;;;5092913;28;19928;-61